Time;durP1;ratioP1;P1;durP2;ratioP2;P2;SDS_P1;SDS_P2;PMS_P1;PMS_P2;Temp;Humidity;BMP_temperature;BMP_pressure;BME280_temperature;BME280_humidity;BME280_pressure;Samples;Min_cycle;Max_cycle;Signal;HPM_P1;HPM_P2
2022/02/13 00:00:22;;;;;;;8.70;3.95;;;7.30;99.90;;;;;;4996043;28;20049;-58
2022/02/13 00:02:50;;;;;;;7.65;3.20;;;7.30;99.90;;;;;;5000036;28;20081;-58
2022/02/13 00:05:17;;;;;;;7.15;3.95;;;7.30;99.90;;;;;;4995207;28;20132;-58
2022/02/13 00:07:46;;;;;;;6.15;3.70;;;7.40;99.90;;;;;;5000781;28;20132;-58
2022/02/13 00:10:13;;;;;;;11.90;5.20;;;7.40;99.90;;;;;;5005397;28;20042;-58
2022/02/13 00:12:40;;;;;;;6.13;4.25;;;7.40;99.90;;;;;;5004819;28;20615;-58
2022/02/13 00:15:07;;;;;;;5.88;3.60;;;7.40;99.90;;;;;;5001226;28;20335;-58
2022/02/13 00:17:34;;;;;;;5.40;3.65;;;7.50;99.90;;;;;;5000662;28;20129;-58
2022/02/13 00:20:19;;;;;;;7.45;4.30;;;7.50;99.90;;;;;;5001752;28;20442;-58
2022/02/13 00:22:47;;;;;;;4.88;3.45;;;7.50;99.90;;;;;;5001472;28;20093;-58
2022/02/13 00:25:14;;;;;;;5.45;3.50;;;7.50;99.90;;;;;;5002020;28;20256;-59
2022/02/13 00:27:40;;;;;;;7.97;3.75;;;7.50;99.90;;;;;;5002675;28;20577;-57
2022/02/13 00:30:08;;;;;;;6.70;3.90;;;7.50;99.90;;;;;;5000971;28;20046;-57
2022/02/13 00:32:35;;;;;;;6.93;3.88;;;7.50;99.90;;;;;;4999852;28;20139;-58
2022/02/13 00:35:01;;;;;;;6.30;3.22;;;7.50;99.90;;;;;;4998762;28;20556;-58
2022/02/13 00:37:28;;;;;;;5.72;3.38;;;7.60;99.90;;;;;;5001582;28;20441;-58
2022/02/13 00:39:55;;;;;;;6.95;3.78;;;7.60;99.90;;;;;;5001987;28;20517;-58
2022/02/13 00:42:22;;;;;;;8.80;3.80;;;7.50;99.90;;;;;;5001927;28;20164;-58
2022/02/13 00:44:48;;;;;;;5.55;3.72;;;7.50;99.90;;;;;;4995193;28;20125;-58
2022/02/13 00:47:15;;;;;;;5.93;3.88;;;7.50;99.90;;;;;;5000717;28;20489;-59
2022/02/13 00:49:42;;;;;;;4.97;2.95;;;7.50;99.90;;;;;;5002566;28;20125;-58
2022/02/13 00:52:08;;;;;;;4.90;2.92;;;7.50;99.90;;;;;;4997291;28;20084;-58
2022/02/13 00:54:35;;;;;;;5.57;3.08;;;7.50;99.90;;;;;;4989762;28;20478;-58
2022/02/13 00:57:02;;;;;;;4.32;3.10;;;7.50;99.90;;;;;;5001773;28;20137;-58
2022/02/13 00:59:30;;;;;;;5.43;3.63;;;7.50;99.90;;;;;;5000460;28;20536;-58
2022/02/13 01:01:56;;;;;;;7.40;2.97;;;7.50;99.90;;;;;;5002253;28;20176;-59
2022/02/13 01:04:23;;;;;;;4.85;3.40;;;7.50;99.90;;;;;;4994426;28;20084;-59
2022/02/13 01:06:50;;;;;;;8.07;3.95;;;7.60;99.90;;;;;;4996562;28;20505;-58
2022/02/13 01:09:17;;;;;;;5.95;3.78;;;7.60;99.90;;;;;;4983481;28;20083;-59
2022/02/13 01:11:44;;;;;;;5.60;3.28;;;7.60;99.90;;;;;;4983089;28;20384;-57
2022/02/13 01:14:10;;;;;;;7.78;3.28;;;7.60;99.90;;;;;;4987741;28;20047;-58
2022/02/13 01:16:37;;;;;;;5.55;3.15;;;7.60;99.90;;;;;;4997719;28;20077;-58
2022/02/13 01:19:04;;;;;;;4.93;3.28;;;7.60;99.90;;;;;;5001727;28;20064;-59
2022/02/13 01:21:31;;;;;;;8.35;3.28;;;7.60;99.90;;;;;;4995164;28;20297;-59
2022/02/13 01:23:58;;;;;;;4.82;2.58;;;7.60;99.90;;;;;;4999891;28;20081;-59
2022/02/13 01:26:24;;;;;;;5.07;2.90;;;7.60;99.90;;;;;;4993040;28;20162;-59
2022/02/13 01:28:51;;;;;;;6.57;2.60;;;7.60;99.90;;;;;;5000072;28;20129;-58
2022/02/13 01:31:18;;;;;;;7.20;3.33;;;7.60;99.90;;;;;;4982263;28;20078;-58
2022/02/13 01:33:45;;;;;;;6.97;3.25;;;7.60;99.90;;;;;;4995656;28;20164;-59
2022/02/13 01:36:12;;;;;;;5.93;3.20;;;7.60;99.90;;;;;;4995454;28;20149;-59
2022/02/13 01:38:39;;;;;;;7.65;3.58;;;7.50;99.90;;;;;;4995881;28;20053;-58
2022/02/13 01:41:06;;;;;;;7.50;3.72;;;7.60;99.90;;;;;;4991771;28;20309;-58
2022/02/13 01:43:33;;;;;;;6.85;3.67;;;7.50;99.90;;;;;;4981539;28;20112;-59
2022/02/13 01:46:00;;;;;;;5.43;2.47;;;7.50;99.90;;;;;;5000892;28;20085;-59
2022/02/13 01:48:29;;;;;;;5.25;3.13;;;7.60;99.90;;;;;;4994848;28;20141;-58
2022/02/13 01:50:56;;;;;;;5.18;3.40;;;7.50;99.90;;;;;;4984349;28;20051;-58
2022/02/13 01:53:43;;;;;;;5.15;3.10;;;7.60;99.90;;;;;;4989115;28;20050;-58
2022/02/13 01:56:09;;;;;;;4.50;2.67;;;7.50;99.90;;;;;;4999342;28;20137;-58
2022/02/13 01:58:37;;;;;;;6.18;3.35;;;7.50;99.90;;;;;;4999550;28;20054;-55
2022/02/13 02:01:04;;;;;;;5.40;3.17;;;7.50;99.90;;;;;;5001755;28;20082;-58
2022/02/13 02:03:31;;;;;;;8.90;4.78;;;7.50;99.90;;;;;;4992166;28;20080;-59
2022/02/13 02:05:57;;;;;;;6.68;3.53;;;7.60;99.90;;;;;;4995416;28;20426;-58
2022/02/13 02:08:24;;;;;;;5.40;2.70;;;7.60;99.90;;;;;;4988503;28;20108;-58
2022/02/13 02:10:51;;;;;;;5.72;2.95;;;7.60;99.90;;;;;;5001536;28;20073;-58
2022/02/13 02:13:18;;;;;;;7.10;3.05;;;7.60;99.90;;;;;;4995954;28;20081;-59
2022/02/13 02:15:44;;;;;;;5.40;2.83;;;7.60;99.90;;;;;;4990917;28;20049;-58
2022/02/13 02:18:11;;;;;;;6.63;3.75;;;7.60;99.90;;;;;;4998845;28;20502;-58
2022/02/13 02:20:38;;;;;;;4.93;3.15;;;7.60;99.90;;;;;;4985838;28;20082;-58
2022/02/13 02:23:05;;;;;;;6.55;3.15;;;7.60;99.90;;;;;;4985521;28;20134;-58
2022/02/13 02:25:31;;;;;;;8.50;3.20;;;7.60;99.90;;;;;;4995525;28;20133;-58
2022/02/13 02:27:58;;;;;;;7.28;2.85;;;7.60;99.90;;;;;;5003925;28;20042;-58
2022/02/13 02:30:25;;;;;;;6.28;2.88;;;7.70;99.90;;;;;;5001758;28;20481;-58
2022/02/13 02:32:52;;;;;;;4.80;2.83;;;7.70;99.90;;;;;;5003245;28;20476;-57
2022/02/13 02:35:18;;;;;;;4.70;2.78;;;7.70;99.90;;;;;;5000673;28;20660;-58
2022/02/13 02:37:47;;;;;;;4.25;2.72;;;7.70;99.90;;;;;;4986965;28;20066;-57
2022/02/13 02:40:15;;;;;;;7.88;2.90;;;7.70;99.90;;;;;;4989783;28;20140;-58
2022/02/13 02:42:42;;;;;;;6.00;2.72;;;7.70;99.90;;;;;;5002699;28;20096;-57
2022/02/13 02:45:13;;;;;;;4.45;2.35;;;7.70;99.90;;;;;;4996509;28;20141;-57
2022/02/13 02:47:43;;;;;;;9.13;2.90;;;7.70;99.90;;;;;;5001591;28;20433;-58
2022/02/13 02:50:12;;;;;;;5.13;2.55;;;7.70;99.90;;;;;;4990629;28;20137;-58
2022/02/13 02:52:39;;;;;;;2.92;2.15;;;7.70;99.90;;;;;;4992316;28;20434;-59
2022/02/13 02:55:06;;;;;;;4.05;2.10;;;7.70;99.90;;;;;;5000049;28;20149;-58
2022/02/13 02:57:33;;;;;;;6.10;2.08;;;7.70;99.90;;;;;;5004542;28;20489;-58
2022/02/13 03:00:00;;;;;;;7.32;2.50;;;7.70;99.90;;;;;;5004541;28;20050;-58
2022/02/13 03:02:27;;;;;;;4.45;2.45;;;7.70;99.90;;;;;;4999478;28;20115;-58
2022/02/13 03:04:55;;;;;;;2.97;2.08;;;7.70;99.90;;;;;;4995251;28;20104;-58
2022/02/13 03:07:22;;;;;;;5.72;2.20;;;7.70;99.90;;;;;;5004585;28;20084;-59
2022/02/13 03:09:49;;;;;;;5.15;2.10;;;7.60;99.90;;;;;;4998212;28;20148;-58
2022/02/13 03:12:16;;;;;;;3.15;1.90;;;7.60;99.90;;;;;;4992207;28;20073;-58
2022/02/13 03:14:42;;;;;;;2.97;2.00;;;7.60;99.90;;;;;;4988505;28;20085;-59
2022/02/13 03:17:09;;;;;;;4.28;1.90;;;7.70;99.90;;;;;;4986882;28;20042;-59
2022/02/13 03:19:36;;;;;;;3.95;1.80;;;7.70;99.90;;;;;;4986068;28;20169;-59
2022/02/13 03:22:03;;;;;;;3.83;1.90;;;7.70;99.90;;;;;;4988455;28;20102;-59
2022/02/13 03:24:30;;;;;;;3.42;2.05;;;7.60;99.90;;;;;;4998136;28;20089;-59
2022/02/13 03:26:57;;;;;;;5.10;2.10;;;7.60;99.90;;;;;;4998772;28;20133;-59
2022/02/13 03:29:24;;;;;;;4.00;1.95;;;7.60;99.90;;;;;;4988193;28;20137;-56
2022/02/13 03:31:50;;;;;;;3.42;2.10;;;7.60;99.90;;;;;;4993718;28;20160;-58
2022/02/13 03:34:17;;;;;;;4.85;2.08;;;7.60;99.90;;;;;;4994143;28;20212;-58
2022/02/13 03:36:44;;;;;;;3.80;1.73;;;7.60;99.90;;;;;;4993778;28;20136;-59
2022/02/13 03:39:11;;;;;;;3.20;1.85;;;7.60;99.90;;;;;;4994043;28;20132;-59
2022/02/13 03:41:39;;;;;;;3.05;1.80;;;7.60;99.90;;;;;;5005685;28;20070;-58
2022/02/13 03:44:08;;;;;;;3.53;1.90;;;7.60;99.90;;;;;;5000429;28;20054;-58
2022/02/13 03:46:35;;;;;;;2.63;1.90;;;7.60;99.90;;;;;;5004266;28;20077;-58
2022/02/13 03:49:03;;;;;;;3.22;1.95;;;7.60;99.90;;;;;;4995797;28;20073;-58
2022/02/13 03:51:29;;;;;;;2.65;1.80;;;7.70;99.90;;;;;;4995476;28;20454;-59
2022/02/13 03:53:56;;;;;;;5.38;2.17;;;7.60;99.90;;;;;;5002735;28;20548;-58
2022/02/13 03:56:23;;;;;;;4.90;2.10;;;7.60;99.90;;;;;;5001816;28;20133;-58
2022/02/13 03:58:49;;;;;;;4.03;2.05;;;7.70;99.90;;;;;;4990794;28;20146;-58
2022/02/13 04:01:16;;;;;;;4.78;2.17;;;7.70;99.90;;;;;;4995113;28;20046;-59
2022/02/13 04:03:43;;;;;;;6.45;2.13;;;7.70;99.90;;;;;;5001498;28;20133;-58
2022/02/13 04:06:10;;;;;;;5.00;2.17;;;7.70;99.90;;;;;;4996430;28;20474;-58
2022/02/13 04:08:37;;;;;;;5.57;2.33;;;7.70;99.90;;;;;;5004024;28;20085;-59
2022/02/13 04:11:03;;;;;;;5.72;2.05;;;7.70;99.90;;;;;;5004166;28;20493;-59
2022/02/13 04:13:30;;;;;;;7.97;3.00;;;7.80;99.90;;;;;;4996142;28;20109;-58
2022/02/13 04:15:57;;;;;;;6.60;2.47;;;7.80;99.90;;;;;;5003195;28;20557;-59
2022/02/13 04:18:24;;;;;;;6.15;2.40;;;7.80;99.90;;;;;;5001958;28;20132;-58
2022/02/13 04:20:50;;;;;;;4.68;2.10;;;7.80;99.90;;;;;;5004548;28;20137;-58
2022/02/13 04:23:17;;;;;;;4.32;2.33;;;7.80;99.90;;;;;;5004343;28;20096;-58
2022/02/13 04:25:44;;;;;;;3.95;1.48;;;7.80;99.90;;;;;;5003843;28;20185;-58
2022/02/13 04:28:11;;;;;;;4.25;2.42;;;7.90;99.90;;;;;;5004415;28;20073;-59
2022/02/13 04:30:37;;;;;;;5.15;2.30;;;7.90;99.90;;;;;;5002845;28;20138;-58
2022/02/13 04:33:04;;;;;;;4.65;1.77;;;7.90;99.90;;;;;;4999842;28;20133;-58
2022/02/13 04:35:33;;;;;;;7.25;2.38;;;7.90;99.90;;;;;;4989236;28;20108;-58
2022/02/13 04:37:59;;;;;;;3.83;2.20;;;7.90;99.90;;;;;;4987400;28;20086;-59
2022/02/13 04:40:26;;;;;;;5.90;2.13;;;7.90;99.90;;;;;;4991206;28;20133;-58
2022/02/13 04:42:53;;;;;;;8.75;2.10;;;7.90;99.90;;;;;;4989432;28;20101;-59
2022/02/13 04:45:20;;;;;;;4.63;2.03;;;7.90;99.90;;;;;;4989978;28;20166;-58
2022/02/13 04:47:48;;;;;;;6.10;2.75;;;7.90;99.90;;;;;;5002526;28;20101;-58
2022/02/13 04:50:21;;;;;;;5.28;2.03;;;8.00;99.90;;;;;;4983870;28;20133;-59
2022/02/13 04:52:49;;;;;;;5.13;1.73;;;8.00;99.90;;;;;;4987838;28;20345;-59
2022/02/13 04:55:16;;;;;;;4.10;1.90;;;8.00;99.90;;;;;;4984883;28;20339;-58
2022/02/13 04:57:43;;;;;;;6.15;2.15;;;8.00;99.90;;;;;;5002337;28;20532;-58
2022/02/13 05:00:11;;;;;;;5.53;1.88;;;8.00;99.90;;;;;;5002305;28;20041;-58
2022/02/13 05:02:38;;;;;;;6.18;2.15;;;8.10;99.90;;;;;;4985881;28;20081;-58
2022/02/13 05:05:05;;;;;;;6.07;1.85;;;8.00;99.90;;;;;;5002221;28;20141;-59
2022/02/13 05:07:32;;;;;;;4.40;2.28;;;8.00;99.90;;;;;;5000116;28;20078;-58
2022/02/13 05:09:58;;;;;;;4.68;1.77;;;8.00;99.90;;;;;;5001984;28;20096;-58
2022/02/13 05:12:25;;;;;;;4.20;2.08;;;8.00;99.90;;;;;;5003162;28;20046;-58
2022/02/13 05:14:52;;;;;;;3.97;1.95;;;8.00;99.90;;;;;;5001549;28;20624;-58
2022/02/13 05:17:21;;;;;;;4.45;2.00;;;8.00;99.90;;;;;;5002782;28;20125;-58
2022/02/13 05:19:48;;;;;;;9.00;1.88;;;8.00;99.90;;;;;;4990709;28;20082;-58
2022/02/13 05:22:16;;;;;;;4.78;1.80;;;7.90;99.90;;;;;;4992826;28;20732;-58
2022/02/13 05:24:42;;;;;;;5.63;1.70;;;7.90;99.90;;;;;;5002988;28;20081;-59
2022/02/13 05:27:09;;;;;;;6.88;2.45;;;8.00;99.90;;;;;;5002650;28;20133;-59
2022/02/13 05:29:36;;;;;;;4.72;1.95;;;7.90;99.90;;;;;;4992112;28;20054;-59
2022/02/13 05:32:03;;;;;;;5.65;1.73;;;7.90;99.90;;;;;;4993046;28;20900;-59
2022/02/13 05:34:30;;;;;;;3.33;1.50;;;7.90;99.90;;;;;;5000191;28;20078;-58
2022/02/13 05:36:57;;;;;;;3.10;1.77;;;7.90;99.90;;;;;;5002772;28;20480;-59
2022/02/13 05:39:25;;;;;;;6.07;1.73;;;7.90;99.90;;;;;;4994297;28;20720;-59
2022/02/13 05:41:52;;;;;;;6.35;2.20;;;7.90;99.90;;;;;;4983963;28;20133;-59
2022/02/13 05:44:19;;;;;;;8.25;2.28;;;7.80;99.90;;;;;;4989302;28;20154;-59
2022/02/13 05:46:46;;;;;;;3.30;1.42;;;7.90;99.90;;;;;;4984427;28;20057;-59
2022/02/13 05:49:13;;;;;;;5.78;1.98;;;7.80;99.90;;;;;;4988294;28;20128;-59
2022/02/13 05:51:39;;;;;;;6.53;1.98;;;7.80;99.90;;;;;;4983905;28;20414;-59
2022/02/13 05:54:06;;;;;;;5.47;2.33;;;7.80;99.90;;;;;;4990856;28;20130;-58
2022/02/13 05:56:33;;;;;;;4.78;1.58;;;7.80;99.90;;;;;;5004038;28;20089;-59
2022/02/13 05:59:00;;;;;;;6.63;2.25;;;7.80;99.90;;;;;;4998913;28;20125;-59
2022/02/13 06:01:27;;;;;;;5.53;1.92;;;7.80;99.90;;;;;;4988529;28;20081;-59
2022/02/13 06:03:54;;;;;;;6.50;1.67;;;7.80;99.90;;;;;;4998858;28;20149;-59
2022/02/13 06:06:21;;;;;;;4.72;1.77;;;7.80;99.90;;;;;;5004672;28;20046;-58
2022/02/13 06:08:47;;;;;;;7.13;2.13;;;7.90;99.90;;;;;;5003910;28;20129;-59
2022/02/13 06:11:14;;;;;;;4.72;1.70;;;7.80;99.90;;;;;;4992024;28;20045;-59
2022/02/13 06:13:41;;;;;;;6.40;1.90;;;7.80;99.90;;;;;;4993325;28;20077;-58
2022/02/13 06:16:08;;;;;;;3.80;1.60;;;7.90;99.90;;;;;;5004882;28;20068;-59
2022/02/13 06:18:35;;;;;;;6.25;1.92;;;7.80;99.90;;;;;;5004551;28;20145;-59
2022/02/13 06:21:03;;;;;;;4.45;2.00;;;7.80;99.90;;;;;;4990717;28;20089;-59
2022/02/13 06:23:29;;;;;;;7.82;3.00;;;7.80;99.90;;;;;;4999761;28;20865;-59
2022/02/13 06:25:58;;;;;;;5.18;1.88;;;7.80;99.90;;;;;;5004601;28;20085;-59
2022/02/13 06:28:24;;;;;;;4.47;1.40;;;7.80;99.90;;;;;;4998764;28;20074;-59
2022/02/13 06:30:53;;;;;;;2.40;1.25;;;7.80;99.90;;;;;;4989929;28;20046;-59
2022/02/13 06:33:20;;;;;;;6.70;2.20;;;7.90;99.90;;;;;;4992373;28;20140;-58
2022/02/13 06:35:47;;;;;;;6.32;2.30;;;7.90;99.90;;;;;;4997673;28;20104;-59
2022/02/13 06:38:14;;;;;;;6.80;2.28;;;7.80;99.90;;;;;;4989769;28;20133;-59
2022/02/13 06:40:41;;;;;;;5.25;1.75;;;7.80;99.90;;;;;;4993826;28;20532;-59
2022/02/13 06:43:08;;;;;;;6.97;1.77;;;7.80;99.90;;;;;;5003266;28;20580;-60
2022/02/13 06:45:36;;;;;;;4.50;1.60;;;7.80;99.90;;;;;;4983919;28;20428;-59
2022/02/13 06:48:04;;;;;;;5.00;2.13;;;7.80;99.90;;;;;;4999746;28;20046;-59
2022/02/13 06:50:31;;;;;;;3.42;1.52;;;7.80;99.90;;;;;;5001860;28;20794;-60
2022/02/13 06:53:01;;;;;;;9.20;2.78;;;7.80;99.90;;;;;;5001420;28;20048;-59
2022/02/13 06:55:27;;;;;;;6.40;1.92;;;7.80;99.90;;;;;;5000081;28;20133;-59
2022/02/13 06:57:55;;;;;;;4.93;1.80;;;7.90;99.90;;;;;;5002860;28;20133;-59
2022/02/13 07:00:22;;;;;;;3.10;1.10;;;7.90;99.90;;;;;;4996845;28;20117;-59
2022/02/13 07:02:49;;;;;;;4.70;1.60;;;7.90;99.90;;;;;;5000899;28;20073;-58
2022/02/13 07:05:16;;;;;;;8.02;1.70;;;7.80;99.90;;;;;;4996994;28;20084;-58
2022/02/13 07:07:42;;;;;;;5.50;1.45;;;7.80;99.90;;;;;;5004853;28;20073;-59
2022/02/13 07:10:12;;;;;;;3.05;1.30;;;7.80;99.90;;;;;;5012014;28;20053;-59
2022/02/13 07:12:39;;;;;;;2.70;1.40;;;7.80;99.90;;;;;;5006730;28;20080;-59
2022/02/13 07:15:06;;;;;;;2.95;1.30;;;7.70;99.90;;;;;;5011413;28;20050;-59
2022/02/13 07:17:37;;;;;;;4.35;1.52;;;7.80;99.90;;;;;;5011346;28;20053;-59
2022/02/13 07:20:07;;;;;;;5.45;1.42;;;7.70;99.90;;;;;;5011569;28;20439;-58
2022/02/13 07:22:35;;;;;;;3.30;1.20;;;7.70;99.90;;;;;;5010750;28;20461;-58
2022/02/13 07:25:06;;;;;;;5.40;1.35;;;7.60;99.90;;;;;;5004005;28;20371;-57
2022/02/13 07:27:33;;;;;;;4.05;1.83;;;7.60;99.90;;;;;;4992683;28;20082;-58
2022/02/13 07:30:00;;;;;;;3.78;1.45;;;7.60;99.90;;;;;;4987317;28;20078;-58
2022/02/13 07:32:27;;;;;;;4.22;1.40;;;7.50;99.90;;;;;;5021714;28;20448;-58
2022/02/13 07:34:54;;;;;;;3.63;1.30;;;7.50;99.90;;;;;;4998855;28;20184;-59
2022/02/13 07:37:21;;;;;;;4.82;1.33;;;7.50;99.90;;;;;;4989993;28;20133;-58
2022/02/13 07:39:50;;;;;;;3.38;1.10;;;7.50;99.90;;;;;;4987811;28;20192;-58
2022/02/13 07:42:18;;;;;;;3.88;1.50;;;7.50;99.90;;;;;;4997192;28;20135;-58
2022/02/13 07:44:46;;;;;;;3.30;1.52;;;7.50;99.90;;;;;;4996703;28;20132;-57
2022/02/13 07:47:13;;;;;;;3.13;1.10;;;7.50;99.90;;;;;;4999687;28;20085;-58
2022/02/13 07:49:41;;;;;;;4.15;1.40;;;7.60;99.90;;;;;;4993534;28;20133;-57
2022/02/13 07:52:08;;;;;;;5.75;1.38;;;7.60;99.90;;;;;;4992547;28;20091;-58
2022/02/13 07:54:35;;;;;;;4.70;1.42;;;7.60;99.90;;;;;;4992441;28;20666;-59
2022/02/13 07:57:04;;;;;;;4.28;1.40;;;7.60;99.90;;;;;;4997726;28;20086;-58
2022/02/13 07:59:31;;;;;;;3.78;1.27;;;7.60;99.90;;;;;;5001402;28;20112;-59
2022/02/13 08:02:00;;;;;;;3.08;1.15;;;7.60;99.90;;;;;;4993552;28;20598;-58
2022/02/13 08:04:27;;;;;;;3.92;1.33;;;7.50;99.90;;;;;;4987435;28;20046;-59
2022/02/13 08:06:54;;;;;;;2.65;1.50;;;7.60;99.90;;;;;;4994099;28;20168;-58
2022/02/13 08:09:20;;;;;;;4.07;1.00;;;7.50;99.90;;;;;;4989551;28;20467;-59
2022/02/13 08:11:47;;;;;;;4.95;1.33;;;7.60;99.90;;;;;;4997523;28;20093;-58
2022/02/13 08:14:14;;;;;;;5.22;1.70;;;7.50;99.90;;;;;;4993401;28;20046;-58
2022/02/13 08:16:41;;;;;;;3.15;1.15;;;7.60;99.90;;;;;;4983320;28;20562;-59
2022/02/13 08:19:07;;;;;;;4.03;1.30;;;7.60;99.90;;;;;;4991206;28;20136;-58
2022/02/13 08:21:34;;;;;;;3.65;1.27;;;7.60;99.90;;;;;;4981006;28;20528;-59
2022/02/13 08:24:01;;;;;;;3.38;1.20;;;7.70;99.90;;;;;;4983124;28;20066;-58
2022/02/13 08:26:28;;;;;;;3.08;1.33;;;7.70;99.90;;;;;;4994643;28;20197;-57
2022/02/13 08:28:54;;;;;;;5.65;1.45;;;7.70;99.90;;;;;;4995459;28;20529;-58
2022/02/13 08:31:21;;;;;;;4.00;1.67;;;7.80;99.90;;;;;;4998947;28;20296;-59
2022/02/13 08:33:48;;;;;;;3.45;1.20;;;7.80;99.90;;;;;;4993584;28;20141;-59
2022/02/13 08:36:15;;;;;;;3.05;1.13;;;7.90;99.90;;;;;;4998944;28;20145;-58
2022/02/13 08:38:42;;;;;;;3.55;1.00;;;7.90;99.90;;;;;;4991862;28;20157;-58
2022/02/13 08:41:09;;;;;;;2.90;1.15;;;8.00;99.90;;;;;;4981336;28;20473;-59
2022/02/13 08:43:35;;;;;;;2.70;1.33;;;8.00;99.90;;;;;;4987414;28;20137;-59
2022/02/13 08:46:02;;;;;;;2.30;1.10;;;8.00;99.90;;;;;;4985113;28;20057;-58
2022/02/13 08:48:29;;;;;;;2.67;0.90;;;8.10;99.90;;;;;;4991033;28;20059;-58
2022/02/13 08:50:56;;;;;;;3.53;1.13;;;8.10;99.90;;;;;;4993767;28;20053;-59
2022/02/13 08:53:23;;;;;;;3.60;1.17;;;8.10;99.90;;;;;;5009828;28;20064;-58
2022/02/13 08:55:50;;;;;;;2.22;0.93;;;8.20;99.90;;;;;;4990176;28;20050;-60
2022/02/13 08:58:18;;;;;;;5.03;1.60;;;8.20;99.90;;;;;;4998957;28;20084;-59
2022/02/13 09:00:45;;;;;;;2.83;1.00;;;8.30;99.90;;;;;;4992922;28;20513;-59
2022/02/13 09:03:12;;;;;;;4.50;0.95;;;8.30;99.90;;;;;;4997347;28;20061;-58
2022/02/13 09:05:39;;;;;;;2.58;1.05;;;8.40;99.90;;;;;;4993400;28;20589;-58
2022/02/13 09:08:08;;;;;;;2.55;0.90;;;8.40;99.90;;;;;;4997286;28;20137;-58
2022/02/13 09:10:35;;;;;;;3.03;1.42;;;8.50;99.90;;;;;;4984298;28;20093;-59
2022/02/13 09:13:02;;;;;;;3.83;1.25;;;8.50;99.90;;;;;;4983070;28;20129;-58
2022/02/13 09:15:30;;;;;;;2.60;1.30;;;8.50;99.90;;;;;;4980381;28;20169;-59
2022/02/13 09:17:57;;;;;;;4.30;1.73;;;8.40;99.90;;;;;;4995071;28;20472;-59
2022/02/13 09:20:24;;;;;;;4.70;1.50;;;8.40;99.90;;;;;;4994051;28;20112;-58
2022/02/13 09:22:52;;;;;;;3.20;1.13;;;8.50;99.90;;;;;;4994806;28;20465;-58
2022/02/13 09:25:19;;;;;;;4.30;1.50;;;8.50;99.90;;;;;;4991009;28;20120;-58
2022/02/13 09:27:46;;;;;;;4.93;1.60;;;8.60;99.90;;;;;;4993625;28;20053;-59
2022/02/13 09:30:13;;;;;;;4.07;1.40;;;8.60;99.90;;;;;;4992956;28;20117;-59
2022/02/13 09:32:41;;;;;;;5.47;1.80;;;8.60;99.90;;;;;;4993605;28;20057;-59
2022/02/13 09:35:08;;;;;;;3.13;1.30;;;8.60;99.90;;;;;;4992304;28;20458;-59
2022/02/13 09:37:35;;;;;;;4.72;1.60;;;8.70;99.90;;;;;;4994758;28;20070;-60
2022/02/13 09:40:03;;;;;;;3.90;1.60;;;8.70;99.90;;;;;;4993171;28;20118;-59
2022/02/13 09:42:29;;;;;;;5.57;2.08;;;8.70;99.90;;;;;;4995405;28;20096;-59
2022/02/13 09:44:57;;;;;;;2.83;1.50;;;8.70;99.90;;;;;;4983350;28;20085;-59
2022/02/13 09:47:24;;;;;;;5.75;1.70;;;8.70;99.90;;;;;;5008307;28;20133;-59
2022/02/13 09:49:52;;;;;;;6.47;1.98;;;8.80;99.90;;;;;;4996270;28;20054;-59
2022/02/13 09:52:18;;;;;;;5.82;1.90;;;8.80;99.90;;;;;;4998923;28;20181;-59
2022/02/13 09:54:45;;;;;;;3.90;1.77;;;8.90;99.90;;;;;;4999403;28;20049;-59
2022/02/13 09:59:59;;;;;;;3.65;1.65;;;8.90;99.90;;;;;;5000672;28;20100;-60
2022/02/13 10:02:42;;;;;;;5.97;2.10;;;8.90;99.90;;;;;;4990988;28;20988;-59
2022/02/13 10:05:13;;;;;;;3.95;1.65;;;8.90;99.90;;;;;;5000185;28;20053;-59
2022/02/13 10:07:41;;;;;;;5.43;1.92;;;9.00;99.90;;;;;;4987271;28;20085;-59
2022/02/13 10:10:10;;;;;;;2.88;1.67;;;9.00;99.90;;;;;;4994640;28;20060;-59
2022/02/13 10:12:42;;;;;;;4.30;1.83;;;9.10;99.90;;;;;;4992784;28;20133;-60
2022/02/13 10:15:22;;;;;;;;;;;9.10;99.90;;;;;;4988056;28;20233;-60
2022/02/13 10:18:01;;;;;;;4.97;1.60;;;9.10;99.90;;;;;;4996810;28;20340;-60
2022/02/13 10:20:29;;;;;;;3.80;1.70;;;9.20;99.90;;;;;;4997969;28;20068;-60
2022/02/13 10:22:56;;;;;;;4.20;1.85;;;9.20;99.90;;;;;;5000283;28;20135;-57
2022/02/13 10:25:23;;;;;;;4.55;1.80;;;9.30;99.90;;;;;;5004026;28;20481;-58
2022/02/13 10:27:50;;;;;;;4.32;1.33;;;9.30;99.90;;;;;;4993774;28;20042;-58
2022/02/13 10:30:37;;;;;;;4.60;1.77;;;9.20;99.90;;;;;;5000303;28;20463;-58
2022/02/13 10:33:23;;;;;;;4.20;1.70;;;9.20;99.90;;;;;;4996893;28;20090;-58
2022/02/13 10:36:06;;;;;;;4.15;2.00;;;9.20;99.90;;;;;;4989421;28;20080;-58
2022/02/13 10:38:40;;;;;;;3.97;1.50;;;9.10;99.90;;;;;;4987618;28;20054;-58
2022/02/13 10:41:11;;;;;;;5.28;1.80;;;9.10;99.90;;;;;;4990717;28;20046;-58
2022/02/13 10:43:58;;;;;;;4.50;1.75;;;9.00;99.90;;;;;;4994973;28;20126;-58
2022/02/13 10:46:30;;;;;;;3.70;1.40;;;9.00;99.90;;;;;;5000263;28;20050;-58
2022/02/13 10:49:00;;;;;;;5.28;1.88;;;9.00;99.90;;;;;;4994335;28;20054;-59
2022/02/13 10:51:27;;;;;;;4.93;2.30;;;9.00;99.90;;;;;;4997120;28;20149;-58
2022/02/13 10:53:55;;;;;;;3.05;1.52;;;8.90;99.90;;;;;;4995691;28;20041;-58
2022/02/13 10:56:22;;;;;;;4.53;1.83;;;8.90;99.90;;;;;;4988054;28;20140;-58
2022/02/13 10:58:49;;;;;;;3.50;1.67;;;8.90;99.90;;;;;;4995654;28;20060;-59
2022/02/13 11:01:16;;;;;;;4.95;1.65;;;8.90;99.90;;;;;;5004460;28;20168;-59
2022/02/13 11:03:48;;;;;;;4.40;1.70;;;8.90;99.90;;;;;;5001534;28;20050;-58
2022/02/13 11:06:15;;;;;;;4.20;1.90;;;8.90;99.90;;;;;;4990403;28;20142;-59
2022/02/13 11:08:51;;;;;;;5.57;2.33;;;8.90;99.90;;;;;;4993215;28;20083;-59
2022/02/13 11:11:39;;;;;;;3.45;1.52;;;8.90;99.90;;;;;;4991657;28;20050;-58
2022/02/13 11:14:06;;;;;;;4.15;2.05;;;8.90;99.90;;;;;;4989048;28;20125;-58
2022/02/13 11:16:34;;;;;;;3.83;1.70;;;8.90;99.90;;;;;;4999633;28;20509;-58
2022/02/13 11:19:12;;;;;;;3.75;1.88;;;8.80;99.90;;;;;;4995422;28;20569;-58
2022/02/13 11:21:41;;;;;;;4.13;1.40;;;8.80;99.90;;;;;;4996971;28;20093;-58
2022/02/13 11:24:11;;;;;;;6.88;2.00;;;8.90;99.90;;;;;;4995391;28;20128;-59
2022/02/13 11:26:44;;;;;;;5.43;1.95;;;8.90;99.90;;;;;;4996716;28;20129;-59
2022/02/13 11:29:14;;;;;;;;;;;8.90;99.90;;;;;;4999002;28;20117;-58
2022/02/13 11:31:57;;;;;;;3.17;1.55;;;8.90;99.90;;;;;;4999184;28;20405;-59
2022/02/13 11:34:30;;;;;;;5.38;1.80;;;9.00;99.90;;;;;;4994233;28;20053;-59
2022/02/13 11:37:19;;;;;;;4.50;1.75;;;9.10;99.90;;;;;;5009869;28;20477;-58
2022/02/13 11:39:48;;;;;;;5.20;1.83;;;9.10;99.90;;;;;;4998786;28;20197;-59
2022/02/13 11:42:19;;;;;;;6.05;2.17;;;9.20;99.90;;;;;;4994457;28;20049;-59
2022/02/13 11:44:48;;;;;;;4.95;1.65;;;9.10;99.90;;;;;;4998442;28;20050;-59
2022/02/13 11:47:40;;;;;;;3.92;1.73;;;9.20;99.90;;;;;;4993776;28;20446;-59
2022/02/13 11:50:07;;;;;;;2.55;1.50;;;9.20;99.90;;;;;;4982396;28;20058;-58
2022/02/13 11:52:35;;;;;;;6.78;2.08;;;9.20;99.90;;;;;;4994669;28;20141;-59
2022/02/13 11:55:16;;;;;;;4.30;2.05;;;9.00;99.90;;;;;;4997108;28;20508;-58
2022/02/13 11:58:12;;;;;;;4.50;1.75;;;9.00;99.90;;;;;;5002436;28;20609;-59
2022/02/13 12:00:50;;;;;;;3.35;1.50;;;9.10;99.90;;;;;;4998601;28;20078;-58
2022/02/13 12:03:35;;;;;;;2.88;1.55;;;9.10;99.90;;;;;;5003275;28;20077;-59
2022/02/13 12:06:02;;;;;;;2.20;1.40;;;9.10;99.90;;;;;;4992467;28;20295;-58
2022/02/13 12:08:29;;;;;;;3.70;1.90;;;9.20;99.90;;;;;;4996642;28;20088;-59
2022/02/13 12:11:06;;;;;;;2.83;1.58;;;9.30;99.90;;;;;;4998949;28;20136;-58
2022/02/13 12:13:36;;;;;;;5.85;1.58;;;9.40;99.90;;;;;;4993089;28;20074;-59
2022/02/13 12:16:05;;;;;;;5.72;2.50;;;9.40;99.90;;;;;;4995897;28;20049;-59
2022/02/13 12:18:34;;;;;;;6.43;2.00;;;9.50;99.90;;;;;;4996729;28;20041;-59
2022/02/13 12:21:07;;;;;;;5.55;2.28;;;9.60;99.90;;;;;;5006500;28;20049;-59
2022/02/13 12:23:35;;;;;;;4.05;1.98;;;9.60;99.90;;;;;;4993059;28;20161;-59
2022/02/13 12:26:02;;;;;;;4.55;1.98;;;9.70;99.90;;;;;;4997340;28;20481;-58
2022/02/13 12:28:31;;;;;;;3.03;1.75;;;9.70;99.90;;;;;;5013956;28;20507;-58
2022/02/13 12:31:00;;;;;;;5.80;2.15;;;9.70;99.90;;;;;;5000390;28;20077;-59
2022/02/13 12:33:27;;;;;;;6.68;2.75;;;9.80;99.90;;;;;;5005008;28;20053;-58
2022/02/13 12:35:57;;;;;;;7.38;2.90;;;9.80;99.90;;;;;;4994576;28;20475;-58
2022/02/13 12:38:28;;;;;;;5.75;2.42;;;9.80;99.90;;;;;;4999496;28;20144;-58
2022/02/13 12:40:58;;;;;;;3.80;2.10;;;10.00;99.90;;;;;;4999744;28;20140;-58
2022/02/13 12:43:25;;;;;;;6.40;2.60;;;10.10;99.90;;;;;;4996091;28;20140;-58
2022/02/13 12:45:55;;;;;;;4.93;2.03;;;10.20;99.90;;;;;;4993540;28;20149;-59
2022/02/13 12:48:25;;;;;;;3.70;2.05;;;10.30;99.90;;;;;;4998739;28;20129;-58
2022/02/13 12:50:55;;;;;;;4.47;2.53;;;10.40;99.90;;;;;;4988120;28;20081;-59
2022/02/13 12:53:27;;;;;;;6.57;1.92;;;10.50;99.90;;;;;;4992869;28;20215;-57
2022/02/13 12:55:59;;;;;;;4.72;1.90;;;10.40;99.90;;;;;;4999198;28;20049;-58
2022/02/13 12:58:26;;;;;;;3.30;1.90;;;10.40;99.90;;;;;;4991763;28;20157;-57
2022/02/13 13:00:54;;;;;;;3.97;1.60;;;10.20;99.90;;;;;;4992663;28;20492;-59
2022/02/13 13:03:40;;;;;;;4.78;1.90;;;10.20;99.90;;;;;;4992991;28;20091;-59
2022/02/13 13:06:07;;;;;;;7.00;3.15;;;10.10;99.90;;;;;;4997285;28;20050;-59